createdAt,value
2023-05-10T05:43:29.131Z,3.60
2023-05-10T05:45:59.086Z,4.13
2023-05-10T05:48:26.985Z,4.03
2023-05-10T05:50:58.054Z,3.13
2023-05-10T05:53:25.866Z,3.30
2023-05-10T05:55:59.077Z,3.75
2023-05-10T05:58:26.915Z,3.85
2023-05-10T06:00:55.238Z,2.80
2023-05-10T06:03:23.028Z,4.18
2023-05-10T06:05:50.814Z,3.38
2023-05-10T06:08:18.554Z,3.03
2023-05-10T06:10:46.574Z,3.45
2023-05-10T06:13:14.301Z,3.72
2023-05-10T06:15:41.920Z,2.80
2023-05-10T06:18:09.776Z,3.08
2023-05-10T06:20:37.574Z,3.75
2023-05-10T06:23:05.458Z,3.75
2023-05-10T06:25:33.269Z,2.83
2023-05-10T06:28:01.103Z,3.42
2023-05-10T06:30:30.197Z,2.72
2023-05-10T06:32:58.428Z,2.15
2023-05-10T06:35:26.056Z,2.45
2023-05-10T06:37:54.040Z,2.85
2023-05-10T06:40:21.864Z,2.15
2023-05-10T06:42:49.547Z,2.80
2023-05-10T06:45:17.905Z,2.20
2023-05-10T06:47:46.065Z,3.50
2023-05-10T06:50:13.967Z,2.67
2023-05-10T06:52:41.675Z,2.42
2023-05-10T06:55:09.987Z,2.20
2023-05-10T06:57:37.698Z,2.00
2023-05-10T07:00:06.227Z,2.05
2023-05-10T07:02:34.164Z,2.03
2023-05-10T07:05:03.462Z,2.22
2023-05-10T07:07:31.399Z,1.52
2023-05-10T07:09:59.261Z,2.28
2023-05-10T07:12:27.074Z,1.52
2023-05-10T07:14:54.720Z,1.50
2023-05-10T07:17:22.542Z,1.73
2023-05-10T07:19:50.506Z,1.30
2023-05-10T07:22:18.106Z,1.57
2023-05-10T07:24:46.659Z,2.40
2023-05-10T07:27:14.447Z,1.35
2023-05-10T07:29:42.085Z,1.52
2023-05-10T07:32:09.763Z,1.90
2023-05-10T07:34:37.488Z,1.30
2023-05-10T07:37:05.276Z,1.30
2023-05-10T07:39:32.856Z,1.20
2023-05-10T07:42:00.403Z,2.13
2023-05-10T07:44:28.001Z,2.35
2023-05-10T07:46:56.625Z,1.80
2023-05-10T07:49:26.992Z,1.63
2023-05-10T07:51:54.721Z,1.63
2023-05-10T07:54:22.701Z,1.40
2023-05-10T07:56:50.298Z,1.97
2023-05-10T07:59:18.618Z,1.30
2023-05-10T08:01:46.287Z,1.42
2023-05-10T08:04:14.073Z,1.10
2023-05-10T08:06:42.018Z,1.25
2023-05-10T08:09:10.035Z,1.33
2023-05-10T08:11:37.729Z,1.63
2023-05-10T08:14:05.516Z,1.30
2023-05-10T08:16:33.584Z,1.23
2023-05-10T08:19:01.414Z,1.83
2023-05-10T08:21:29.234Z,1.73
2023-05-10T08:23:56.924Z,1.90
2023-05-10T08:26:24.620Z,2.25
2023-05-10T08:28:52.385Z,1.60
2023-05-10T08:31:20.159Z,2.63
2023-05-10T08:33:47.961Z,1.52
2023-05-10T08:36:20.751Z,1.98
2023-05-10T08:38:53.272Z,1.77
2023-05-10T08:41:25.545Z,2.35
2023-05-10T08:43:54.605Z,1.50
2023-05-10T08:55:01.168Z,1.90
2023-05-10T09:01:28.027Z,1.88
2023-05-10T09:03:56.437Z,1.98
2023-05-10T09:06:24.495Z,1.95
2023-05-10T09:08:53.143Z,2.30
2023-05-10T09:11:21.882Z,2.58
2023-05-10T09:13:51.785Z,1.77
2023-05-10T09:16:21.849Z,1.90
2023-05-10T09:18:50.877Z,1.67
2023-05-10T09:21:20.428Z,1.73
2023-05-10T09:23:51.055Z,1.95
2023-05-10T09:26:23.985Z,1.65
2023-05-10T09:29:01.516Z,1.27
2023-05-10T09:31:49.270Z,1.58
2023-05-10T09:34:22.097Z,1.38
2023-05-10T09:36:59.072Z,1.52
2023-05-10T09:39:39.242Z,1.90
2023-05-10T09:42:11.501Z,1.00
2023-05-10T09:44:39.379Z,1.27
2023-05-10T09:47:06.951Z,1.10
2023-05-10T09:49:36.077Z,1.15
2023-05-10T09:52:05.990Z,1.48
2023-05-10T09:54:34.834Z,1.10
2023-05-10T09:57:03.045Z,0.88
2023-05-10T09:59:31.413Z,1.75
2023-05-10T10:02:00.772Z,1.10
2023-05-10T10:04:29.210Z,0.90
2023-05-10T10:07:04.697Z,0.95
2023-05-10T10:09:33.390Z,0.82
2023-05-10T10:12:05.728Z,1.48
2023-05-10T10:14:34.614Z,0.50
2023-05-10T10:17:07.732Z,0.75
2023-05-10T10:19:37.235Z,1.20
2023-05-10T10:24:33.037Z,1.20
2023-05-10T10:27:22.121Z,1.07
2023-05-10T10:30:11.511Z,0.93
2023-05-10T10:32:55.510Z,0.82
2023-05-10T10:35:26.774Z,1.13
2023-05-10T10:37:54.460Z,0.65
2023-05-10T10:40:34.827Z,1.05
2023-05-10T10:43:23.341Z,0.57
2023-05-10T10:46:11.278Z,0.50
2023-05-10T10:48:39.006Z,0.50
2023-05-10T10:51:06.707Z,0.45
2023-05-10T10:53:34.815Z,0.93
2023-05-10T10:56:10.697Z,0.60
2023-05-10T10:58:39.830Z,0.85
2023-05-10T11:01:16.381Z,0.70
2023-05-10T11:04:04.260Z,0.80
2023-05-10T11:06:36.930Z,0.63
2023-05-10T11:09:12.803Z,0.90
2023-05-10T11:12:01.005Z,0.75
2023-05-10T11:14:28.767Z,0.57
2023-05-10T11:16:56.459Z,0.75
2023-05-10T11:19:29.359Z,0.90
2023-05-10T11:24:59.386Z,1.00
2023-05-10T11:28:03.819Z,0.50
2023-05-10T11:41:04.332Z,0.80
2023-05-10T11:44:31.924Z,0.73
2023-05-10T11:47:13.412Z,0.57
2023-05-10T11:49:45.375Z,0.90
2023-05-10T11:52:13.303Z,1.00
2023-05-10T11:54:56.758Z,0.70
2023-05-10T11:57:29.322Z,0.63
2023-05-10T12:00:00.120Z,0.60
2023-05-10T12:02:27.930Z,0.60
2023-05-10T12:04:57.228Z,0.75
2023-05-10T12:07:24.878Z,0.63
2023-05-10T12:10:16.215Z,0.60
2023-05-10T12:12:54.794Z,0.73
2023-05-10T12:15:24.494Z,0.43
2023-05-10T12:17:52.737Z,0.50
2023-05-10T12:20:25.338Z,0.55
2023-05-10T12:22:54.074Z,0.50
2023-05-10T12:27:57.816Z,0.60
2023-05-10T12:30:27.514Z,0.50
2023-05-10T12:33:00.734Z,0.80
2023-05-10T12:35:46.785Z,0.50
2023-05-10T12:41:30.122Z,0.90
2023-05-10T12:43:57.859Z,1.40
2023-05-10T12:46:28.764Z,0.80
2023-05-10T12:49:07.928Z,0.93
2023-05-10T12:51:36.414Z,0.52
2023-05-10T12:54:04.965Z,0.90
2023-05-10T12:56:32.549Z,0.60
2023-05-10T12:59:00.429Z,0.82
2023-05-10T13:01:28.027Z,1.00
2023-05-10T13:03:55.674Z,0.80
2023-05-10T13:09:54.234Z,1.13
2023-05-10T13:12:22.010Z,1.30
2023-05-10T13:14:49.542Z,1.15
2023-05-10T13:28:10.276Z,0.80
2023-05-10T13:30:38.280Z,0.98
2023-05-10T15:27:07.337Z,1.88
2023-05-10T15:29:35.262Z,1.50
2023-05-10T15:32:03.882Z,1.40
2023-05-10T15:34:33.157Z,1.42
2023-05-10T15:44:14.383Z,1.95
2023-05-10T15:46:42.239Z,1.60
2023-05-10T15:49:09.876Z,1.30
2023-05-10T15:51:37.691Z,1.10
2023-05-10T15:54:08.247Z,1.17
2023-05-10T15:56:36.536Z,1.10
2023-05-10T15:59:05.985Z,1.23
2023-05-10T16:01:33.931Z,0.90
2023-05-10T16:04:01.957Z,1.10
2023-05-10T16:06:29.573Z,1.20
2023-05-10T16:08:57.568Z,1.40
2023-05-10T16:11:25.173Z,1.05
2023-05-10T16:13:52.921Z,1.00
2023-05-10T16:16:20.560Z,1.45
2023-05-10T16:18:48.355Z,1.30
2023-05-10T16:21:16.064Z,1.48
2023-05-10T16:23:46.401Z,1.77
2023-05-10T16:26:14.033Z,1.30
2023-05-10T16:28:41.639Z,1.98
2023-05-10T16:31:09.297Z,1.70
2023-05-10T16:33:37.332Z,2.40
2023-05-10T16:36:06.145Z,1.70
2023-05-10T16:41:04.338Z,2.10
2023-05-10T16:43:33.091Z,1.80
2023-05-10T16:46:00.909Z,1.42
2023-05-10T16:48:28.476Z,1.65
2023-05-10T16:50:55.994Z,1.55
2023-05-10T16:53:23.573Z,1.50
2023-05-10T16:55:51.197Z,1.63
2023-05-10T16:58:18.737Z,1.95
2023-05-10T17:00:46.805Z,1.63
2023-05-10T17:03:14.625Z,1.70
2023-05-10T17:05:43.138Z,1.48
2023-05-10T17:08:10.805Z,1.70
2023-05-10T17:10:41.604Z,1.50
2023-05-10T17:13:10.444Z,1.50
2023-05-10T17:15:39.116Z,1.40
2023-05-10T17:18:07.623Z,1.40
2023-05-10T17:20:35.604Z,1.20
2023-05-10T17:23:03.520Z,1.02
2023-05-10T17:25:31.179Z,1.10
2023-05-10T17:27:58.837Z,1.02
2023-05-10T17:30:30.246Z,1.35
2023-05-10T17:32:58.750Z,0.85
2023-05-10T17:35:27.390Z,0.90
2023-05-10T17:37:55.149Z,1.10
2023-05-10T17:40:22.821Z,0.70
2023-05-10T17:42:50.684Z,0.82
2023-05-10T17:45:18.695Z,0.98
2023-05-10T17:47:46.550Z,0.88
2023-05-10T17:53:55.443Z,0.93
2023-05-10T17:56:23.054Z,1.17
2023-05-10T17:58:51.196Z,1.17
2023-05-10T18:01:19.015Z,1.00
2023-05-10T18:07:17.450Z,1.10
2023-05-10T18:13:16.886Z,1.10
2023-05-10T18:15:44.627Z,0.97
2023-05-10T18:18:12.300Z,1.10
2023-05-10T18:20:40.225Z,1.20
2023-05-10T18:23:07.908Z,1.17
2023-05-10T18:40:11.237Z,0.80
2023-05-10T23:33:36.397Z,2.05
2023-05-10T23:39:59.843Z,2.10
